Time;durP1;ratioP1;P1;durP2;ratioP2;P2;SDS_P1;SDS_P2;PMS_P1;PMS_P2;Temp;Humidity;BMP_temperature;BMP_pressure;BME280_temperature;BME280_humidity;BME280_pressure;Samples;Min_cycle;Max_cycle;Signal;HPM_P1;HPM_P2
2021/06/11 00:00:00;;;;;;;8.23;3.60;;;;;;;23.68;52.22;99873.66;2069992;28;20108;-67
2021/06/11 00:01:01;;;;;;;2.60;2.40;;;;;;;23.69;52.20;99874.50;2066672;28;20511;-66
2021/06/11 00:02:01;;;;;;;2.90;2.60;;;;;;;23.68;52.18;99870.06;2057785;28;20025;-66
2021/06/11 00:03:02;;;;;;;3.40;2.93;;;;;;;23.70;52.31;99876.25;2059665;28;20022;-66
2021/06/11 00:04:03;;;;;;;3.67;2.53;;;;;;;23.69;52.35;99875.41;2070212;28;20539;-66
2021/06/11 00:05:04;;;;;;;3.27;2.87;;;;;;;23.70;52.22;99879.00;2065008;28;20337;-66
2021/06/11 00:06:05;;;;;;;3.22;2.70;;;;;;;23.68;52.38;99878.31;2074064;28;20033;-66
2021/06/11 00:07:06;;;;;;;3.23;2.87;;;;;;;23.68;52.38;99879.16;2069945;28;20024;-66
2021/06/11 00:08:07;;;;;;;2.93;2.47;;;;;;;23.68;52.34;99878.31;2068423;28;20288;-67
2021/06/11 00:09:07;;;;;;;3.10;2.77;;;;;;;23.68;52.29;99875.56;2070114;28;20056;-67
2021/06/11 00:10:11;;;;;;;3.47;2.73;;;;;;;23.67;52.37;99879.38;2069234;28;20028;-67
2021/06/11 00:11:11;;;;;;;3.10;2.80;;;;;;;23.67;52.27;99882.13;2066604;28;20496;-66
2021/06/11 00:12:13;;;;;;;3.50;3.00;;;;;;;23.67;52.35;99882.97;2068992;28;20692;-67
2021/06/11 00:13:14;;;;;;;3.80;3.22;;;;;;;23.68;52.52;99883.81;2068881;28;20124;-67
2021/06/11 00:14:15;;;;;;;2.80;2.53;;;;;;;23.67;52.42;99880.22;2067808;28;20028;-67
2021/06/11 00:15:16;;;;;;;3.00;2.70;;;;;;;23.67;52.31;99885.72;2070439;28;20951;-67
2021/06/11 00:16:22;;;;;;;3.73;2.70;;;;;;;23.66;52.37;99884.00;2074093;28;20099;-67
2021/06/11 00:17:23;;;;;;;3.03;2.45;;;;;;;23.66;52.38;99880.41;2067146;28;20167;-67
2021/06/11 00:18:23;;;;;;;2.80;2.60;;;;;;;23.66;52.37;99877.66;2066124;28;20029;-67
2021/06/11 00:19:24;;;;;;;3.00;2.70;;;;;;;23.66;52.31;99874.88;2067759;28;20476;-67
2021/06/11 00:20:25;;;;;;;2.73;2.47;;;;;;;23.66;52.28;99874.88;2065522;28;20033;-67
2021/06/11 00:21:25;;;;;;;2.87;2.57;;;;;;;23.67;52.29;99879.38;2069306;28;20841;-67
2021/06/11 00:22:26;;;;;;;2.70;2.40;;;;;;;23.67;52.44;99876.63;2067501;28;20292;-67
2021/06/11 00:23:26;;;;;;;2.87;2.57;;;;;;;23.66;52.31;99880.41;2068270;28;20087;-67
2021/06/11 00:24:27;;;;;;;4.03;3.07;;;;;;;23.66;52.33;99870.25;2069627;28;20492;-66
2021/06/11 00:25:27;;;;;;;2.40;2.20;;;;;;;23.67;52.23;99876.63;2058574;28;20042;-67
2021/06/11 00:26:28;;;;;;;3.27;2.97;;;;;;;23.67;52.06;99876.63;2067663;28;20033;-67
2021/06/11 00:27:28;;;;;;;3.63;2.90;;;;;;;23.67;52.26;99876.63;2068057;28;20044;-66
2021/06/11 00:28:29;;;;;;;2.90;2.67;;;;;;;23.67;52.34;99873.88;2074149;28;20033;-67
2021/06/11 00:29:29;;;;;;;2.97;2.77;;;;;;;23.65;52.35;99876.78;2067774;28;20068;-67
2021/06/11 00:30:31;;;;;;;3.07;2.77;;;;;;;23.66;52.48;99880.41;2067508;28;20035;-67
2021/06/11 00:31:31;;;;;;;3.17;2.88;;;;;;;23.67;52.45;99874.72;2072780;28;20518;-67
2021/06/11 00:32:32;;;;;;;3.63;2.80;;;;;;;23.67;52.45;99882.13;2071758;28;20142;-66
2021/06/11 00:33:32;;;;;;;3.00;2.70;;;;;;;23.67;52.40;99873.88;2060538;28;20084;-66
2021/06/11 00:34:33;;;;;;;2.77;2.53;;;;;;;23.67;52.44;99879.38;2056822;28;20359;-67
2021/06/11 00:35:33;;;;;;;2.83;2.57;;;;;;;23.66;52.50;99874.88;2068552;28;20464;-67
2021/06/11 00:36:34;;;;;;;3.80;2.73;;;;;;;23.65;52.51;99874.03;2067564;28;20551;-66
2021/06/11 00:37:34;;;;;;;2.80;2.60;;;;;;;23.66;52.39;99877.66;2060614;28;20061;-67
2021/06/11 00:38:35;;;;;;;3.10;2.80;;;;;;;23.66;52.40;99875.75;2057361;28;21019;-67
2021/06/11 00:39:35;;;;;;;2.93;2.63;;;;;;;23.65;52.42;99876.78;2058321;28;20116;-66
2021/06/11 00:40:36;;;;;;;3.70;3.30;;;;;;;23.65;52.61;99875.94;2066288;28;20027;-67
2021/06/11 00:41:37;;;;;;;3.20;2.90;;;;;;;23.66;52.70;99877.66;2073600;28;20056;-67
2021/06/11 00:42:46;;;;;;;2.60;2.40;;;;;;;23.64;52.47;99869.59;2064666;28;20036;-67
2021/06/11 00:43:47;;;;;;;2.40;2.20;;;;;;;23.64;52.46;99872.34;2074616;28;20513;-67
2021/06/11 00:44:47;;;;;;;2.30;2.10;;;;;;;23.64;52.56;99871.47;2068144;28;20029;-66
2021/06/11 00:45:48;;;;;;;3.37;2.57;;;;;;;23.63;52.63;99872.53;2069546;28;20160;-67
2021/06/11 00:46:48;;;;;;;3.20;2.90;;;;;;;23.64;52.55;99874.22;2070129;28;20070;-66
2021/06/11 00:47:48;;;;;;;4.33;2.67;;;;;;;23.63;52.59;99869.78;2067408;28;20040;-67
2021/06/11 00:48:49;;;;;;;3.03;2.73;;;;;;;23.63;52.63;99872.53;2067459;28;20033;-66
2021/06/11 00:49:50;;;;;;;2.40;2.20;;;;;;;23.64;52.67;99868.72;2066723;28;20767;-66
2021/06/11 00:50:50;;;;;;;2.90;2.60;;;;;;;23.63;52.73;99870.63;2060540;28;20017;-67
2021/06/11 00:51:51;;;;;;;2.80;2.60;;;;;;;23.63;52.59;99867.88;2074350;28;20326;-67
2021/06/11 00:52:53;;;;;;;3.00;2.60;;;;;;;23.63;52.65;99864.25;2073033;28;20032;-66
2021/06/11 00:53:54;;;;;;;2.80;2.60;;;;;;;23.63;52.52;99862.38;2060528;28;20038;-66
2021/06/11 00:54:55;;;;;;;3.38;2.83;;;;;;;23.64;52.59;99865.97;2066161;28;20021;-67
2021/06/11 00:55:55;;;;;;;6.97;2.80;;;;;;;23.64;52.76;99868.72;2068439;28;20037;-66
2021/06/11 00:56:56;;;;;;;2.63;2.43;;;;;;;23.62;52.73;99863.41;2069629;28;20024;-67
2021/06/11 00:57:57;;;;;;;2.83;2.53;;;;;;;23.63;52.75;99867.00;2070124;28;20025;-67
2021/06/11 00:58:58;;;;;;;2.88;2.58;;;;;;;23.63;52.67;99865.13;2066804;28;20036;-67
2021/06/11 00:59:58;;;;;;;3.20;2.90;;;;;;;23.63;52.83;99876.13;2066056;28;20040;-66
2021/06/11 01:00:59;;;;;;;4.87;2.80;;;;;;;23.63;52.63;99869.78;2065435;28;20049;-66
2021/06/11 01:01:59;;;;;;;2.93;2.63;;;;;;;23.62;52.56;99868.06;2064941;28;20029;-67
2021/06/11 01:03:00;;;;;;;2.93;2.67;;;;;;;23.61;52.74;99866.34;2070261;28;20033;-67
2021/06/11 01:04:00;;;;;;;2.80;2.60;;;;;;;23.62;52.73;99868.06;2062725;28;20122;-66
2021/06/11 01:05:01;;;;;;;3.13;2.33;;;;;;;23.61;52.74;99867.19;2061881;28;20359;-67
2021/06/11 01:06:01;;;;;;;2.90;2.70;;;;;;;23.63;52.86;99869.78;2067474;28;20527;-67
2021/06/11 01:07:03;;;;;;;2.87;2.57;;;;;;;23.62;52.64;99868.06;2072675;28;20022;-67
2021/06/11 01:08:06;;;;;;;3.10;2.67;;;;;;;23.62;52.67;99865.31;2062112;28;20741;-67
2021/06/11 01:09:08;;;;;;;2.40;2.10;;;;;;;23.62;52.72;99868.91;2067795;28;20021;-67
2021/06/11 01:10:10;;;;;;;3.22;2.85;;;;;;;23.62;52.59;99871.66;2067914;28;20064;-67
2021/06/11 01:11:12;;;;;;;3.00;2.72;;;;;;;23.62;52.83;99868.06;2065977;28;20044;-67
2021/06/11 01:12:13;;;;;;;2.65;2.45;;;;;;;23.62;52.75;99870.81;2067626;28;20052;-64
2021/06/11 01:13:27;;;;;;;5.55;2.80;;;;;;;23.60;52.73;99876.50;2077647;28;20025;-67
2021/06/11 01:14:27;;;;;;;2.58;2.38;;;;;;;23.61;52.80;99875.44;2066905;28;20056;-67
2021/06/11 01:15:28;;;;;;;2.87;2.63;;;;;;;23.62;52.82;99876.31;2076578;28;20017;-67
2021/06/11 01:16:29;;;;;;;3.00;2.70;;;;;;;23.62;52.82;99873.56;2072306;28;20025;-67
2021/06/11 01:17:53;;;;;;;2.77;2.57;;;;;;;23.60;52.88;99872.91;2060827;28;20571;-67
2021/06/11 01:18:53;;;;;;;3.85;2.78;;;;;;;23.60;52.89;99876.50;2054611;28;20030;-67
2021/06/11 01:19:54;;;;;;;3.30;2.80;;;;;;;23.61;52.91;99871.84;2066564;28;20033;-66
2021/06/11 01:20:54;;;;;;;3.10;2.80;;;;;;;23.61;52.85;99877.34;2067409;28;20088;-67
2021/06/11 01:22:05;;;;;;;2.83;2.63;;;;;;;23.60;52.88;99875.66;2076308;28;20033;-66
2021/06/11 01:23:41;;;;;;;3.15;2.45;;;;;;;23.60;52.71;99876.50;2062055;28;20593;-66
2021/06/11 01:25:04;;;;;;;2.53;2.33;;;;;;;23.57;52.88;99873.25;2057505;28;20030;-67
2021/06/11 01:26:25;;;;;;;3.75;2.80;;;;;;;23.57;53.03;99876.00;2054828;28;20021;-67
2021/06/11 01:27:28;;;;;;;3.60;2.83;;;;;;;23.57;52.97;99882.38;2062624;28;20500;-67
2021/06/11 01:28:32;;;;;;;3.72;2.80;;;;;;;23.57;52.79;99879.63;2065689;28;20033;-68
2021/06/11 01:29:34;;;;;;;3.13;2.83;;;;;;;23.58;53.01;99883.22;2059944;28;20041;-66
2021/06/11 01:30:36;;;;;;;3.10;2.80;;;;;;;23.57;53.04;99873.25;2063057;28;20024;-67
2021/06/11 01:31:40;;;;;;;3.88;2.70;;;;;;;23.57;53.05;99881.50;2065107;28;20032;-67
2021/06/11 01:32:44;;;;;;;2.88;2.50;;;;;;;23.57;52.93;99874.13;2067381;28;20033;-67
2021/06/11 01:33:51;;;;;;;3.25;2.83;;;;;;;23.59;52.95;99874.81;2066995;28;20025;-67
2021/06/11 01:34:52;;;;;;;3.47;2.50;;;;;;;23.58;52.80;99874.97;2061400;28;20053;-67
2021/06/11 01:36:00;;;;;;;3.00;2.70;;;;;;;23.57;52.84;99876.00;2064353;28;20048;-66
2021/06/11 01:37:15;;;;;;;2.88;2.35;;;;;;;23.58;52.91;99872.22;2067841;28;20044;-67
2021/06/11 01:38:22;;;;;;;2.70;2.50;;;;;;;23.57;52.86;99876.00;2071440;28;20025;-66
2021/06/11 01:39:25;;;;;;;2.78;2.55;;;;;;;23.57;53.10;99874.13;2069112;28;20029;-67
2021/06/11 01:40:25;;;;;;;2.63;2.42;;;;;;;23.57;53.02;99871.38;2073569;28;20029;-66
2021/06/11 01:41:28;;;;;;;3.10;2.80;;;;;;;23.57;52.94;99878.75;2064944;28;20037;-66
2021/06/11 01:42:30;;;;;;;3.35;2.70;;;;;;;23.57;52.96;99876.88;2074391;28;20032;-66
2021/06/11 01:43:31;;;;;;;;;;;;;;;23.54;53.13;99878.09;2067836;28;20034;-66
2021/06/11 01:44:35;;;;;;;3.97;2.42;;;;;;;23.54;53.10;99875.34;2057775;28;19957;-66
2021/06/11 01:45:37;;;;;;;2.60;2.40;;;;;;;23.57;53.02;99876.88;2050583;28;20650;-66
2021/06/11 01:46:40;;;;;;;3.15;2.72;;;;;;;23.56;53.13;99875.16;2058705;28;20101;-66
2021/06/11 01:47:44;;;;;;;3.42;2.50;;;;;;;23.57;53.09;99878.75;2064178;28;20439;-67
2021/06/11 01:48:46;;;;;;;2.90;2.60;;;;;;;23.57;53.12;99876.00;2069329;28;20029;-67
2021/06/11 01:49:49;;;;;;;3.35;2.53;;;;;;;23.56;53.07;99868.78;2068152;28;20087;-67
2021/06/11 01:50:51;;;;;;;2.67;2.40;;;;;;;23.57;53.21;99865.00;2063041;28;20055;-67
2021/06/11 01:51:54;;;;;;;3.08;2.60;;;;;;;23.57;53.16;99867.75;2065168;28;20116;-67
2021/06/11 01:52:55;;;;;;;2.88;2.47;;;;;;;23.57;53.01;99870.50;2063996;28;20030;-67
2021/06/11 01:53:59;;;;;;;3.00;2.63;;;;;;;23.57;53.21;99870.50;2066634;28;20082;-67
2021/06/11 01:55:01;;;;;;;3.17;2.80;;;;;;;23.59;53.18;99865.66;2071850;28;20016;-67
2021/06/11 01:56:02;;;;;;;2.55;2.33;;;;;;;23.57;53.33;99865.00;2072048;28;20185;-67
2021/06/11 01:57:04;;;;;;;3.15;2.85;;;;;;;23.57;53.12;99860.38;2063584;28;20032;-67
2021/06/11 01:58:05;;;;;;;2.55;2.35;;;;;;;23.58;53.07;99861.22;2067629;28;20029;-67
2021/06/11 01:59:06;;;;;;;;;;;;;;;23.53;53.42;99865.38;2060026;28;20084;-67
2021/06/11 02:00:10;;;;;;;2.88;2.67;;;;;;;23.53;53.34;99859.00;2055841;28;20021;-67
2021/06/11 02:01:12;;;;;;;2.60;2.40;;;;;;;23.57;53.13;99865.00;2055552;28;20132;-67
2021/06/11 02:02:14;;;;;;;2.90;2.63;;;;;;;23.53;53.29;99857.13;2062282;28;20083;-67
2021/06/11 02:03:17;;;;;;;3.25;2.67;;;;;;;23.56;53.25;99863.28;2074645;28;20024;-67
2021/06/11 02:04:18;;;;;;;2.92;2.60;;;;;;;23.56;53.27;99863.28;2060565;28;20671;-67
2021/06/11 02:05:20;;;;;;;3.65;2.70;;;;;;;23.54;53.11;99867.09;2060315;28;20038;-66
2021/06/11 02:06:21;;;;;;;2.67;2.45;;;;;;;23.54;53.32;99861.59;2066502;28;20048;-66
2021/06/11 02:07:24;;;;;;;2.80;2.60;;;;;;;23.56;53.21;99860.53;2070058;28;20037;-67
2021/06/11 02:08:25;;;;;;;2.97;2.70;;;;;;;23.56;53.23;99863.28;2076029;28;20027;-67
2021/06/11 02:09:26;;;;;;;2.55;2.35;;;;;;;23.54;53.18;99861.59;2065549;28;20025;-67
2021/06/11 02:10:27;;;;;;;2.75;2.42;;;;;;;23.56;53.34;99863.28;2069516;28;20035;-67
2021/06/11 02:11:29;;;;;;;2.40;2.20;;;;;;;23.57;53.24;99859.50;2066868;28;20048;-66
2021/06/11 02:12:32;;;;;;;3.33;2.47;;;;;;;23.56;53.23;99857.78;2067133;28;20049;-67
2021/06/11 02:13:33;;;;;;;3.45;2.47;;;;;;;23.58;53.31;99861.22;2076448;28;20024;-67
2021/06/11 02:14:35;;;;;;;3.70;2.80;;;;;;;23.54;53.16;99856.09;2074148;28;20021;-67
2021/06/11 02:15:36;;;;;;;2.83;2.53;;;;;;;23.56;53.27;99858.63;2075685;28;20028;-67
2021/06/11 02:16:37;;;;;;;4.93;2.90;;;;;;;23.56;53.26;99852.28;2068499;28;20033;-67
2021/06/11 02:17:41;;;;;;;3.92;2.80;;;;;;;23.54;53.34;99856.09;2072407;28;20044;-67
2021/06/11 02:18:43;;;;;;;2.95;2.65;;;;;;;23.56;53.40;99855.88;2060393;28;20057;-67
2021/06/11 02:20:21;;;;;;;;;;;;;;;23.52;53.41;99857.31;2062791;28;20029;-66
2021/06/11 02:21:23;;;;;;;3.13;2.45;;;;;;;23.50;53.40;99854.75;2066005;28;19944;-66
2021/06/11 02:22:23;;;;;;;3.17;2.88;;;;;;;23.52;53.42;99854.56;2063603;28;20053;-67
2021/06/11 02:23:24;;;;;;;3.13;2.80;;;;;;;23.52;53.30;99852.66;2072607;28;20025;-67
2021/06/11 02:24:24;;;;;;;3.13;2.40;;;;;;;23.51;53.38;99845.44;2073485;28;20136;-67
2021/06/11 02:25:26;;;;;;;2.60;2.40;;;;;;;23.51;53.50;99850.94;2069922;28;20810;-67
2021/06/11 02:26:28;;;;;;;2.55;2.35;;;;;;;23.52;53.53;99852.66;2066904;28;20575;-67
2021/06/11 02:27:30;;;;;;;2.90;2.60;;;;;;;23.53;53.51;99851.59;2071412;28;20068;-67
2021/06/11 02:28:31;;;;;;;3.30;2.72;;;;;;;23.53;53.29;99853.50;2072439;28;20017;-67
2021/06/11 02:29:33;;;;;;;2.77;2.57;;;;;;;23.52;53.46;99855.41;2062739;28;20026;-67
2021/06/11 02:30:34;;;;;;;5.18;2.75;;;;;;;23.53;53.47;99854.38;2065509;28;20279;-66
2021/06/11 02:31:34;;;;;;;2.43;2.23;;;;;;;23.53;53.59;99848.00;2069522;28;20028;-67
2021/06/11 02:32:36;;;;;;;3.10;2.77;;;;;;;23.54;53.52;99850.59;2058965;28;20052;-66
2021/06/11 02:33:37;;;;;;;2.35;2.15;;;;;;;23.53;53.42;99846.09;2059402;28;20029;-66
2021/06/11 02:34:37;;;;;;;3.72;3.40;;;;;;;23.53;53.48;99848.84;2053320;28;20129;-67
2021/06/11 02:35:38;;;;;;;2.57;2.20;;;;;;;23.53;53.55;99843.34;2062839;28;20041;-67
2021/06/11 02:36:39;;;;;;;3.23;2.77;;;;;;;23.53;53.41;99848.84;2059165;28;20741;-66
2021/06/11 02:37:40;;;;;;;3.20;2.40;;;;;;;23.53;53.50;99848.00;2066707;28;20078;-66
2021/06/11 02:38:41;;;;;;;2.70;2.42;;;;;;;23.54;53.56;99844.22;2069560;28;20496;-67
2021/06/11 02:39:42;;;;;;;3.13;2.83;;;;;;;23.56;53.64;99846.78;2068071;28;20407;-66
2021/06/11 02:40:43;;;;;;;3.10;2.83;;;;;;;23.54;53.59;99845.09;2070699;28;20267;-67
2021/06/11 02:41:48;;;;;;;3.40;2.87;;;;;;;23.52;53.53;99847.16;2065677;28;20042;-67
2021/06/11 02:42:58;;;;;;;3.17;2.88;;;;;;;23.52;53.48;99847.16;2067456;28;20033;-67
2021/06/11 02:43:59;;;;;;;2.97;2.67;;;;;;;23.53;53.47;99848.84;2066569;28;20613;-66
2021/06/11 02:45:08;;;;;;;2.67;2.47;;;;;;;23.52;53.41;99844.41;2069040;28;20406;-67
2021/06/11 02:46:28;;;;;;;3.03;2.72;;;;;;;23.51;53.45;99848.19;2068400;28;20034;-66
2021/06/11 02:47:40;;;;;;;2.90;2.67;;;;;;;23.51;53.57;99848.19;2067624;28;20967;-66
2021/06/11 02:48:48;;;;;;;2.83;2.60;;;;;;;23.51;53.41;99839.94;2068032;28;20786;-67
2021/06/11 02:49:57;;;;;;;2.58;2.35;;;;;;;23.51;53.67;99839.94;2069011;28;20503;-66
2021/06/11 02:51:04;;;;;;;3.15;2.67;;;;;;;23.51;53.69;99839.94;2068407;28;20045;-67
2021/06/11 02:52:07;;;;;;;3.15;2.85;;;;;;;23.50;53.60;99841.00;2068415;28;20029;-66
2021/06/11 02:53:10;;;;;;;2.85;2.58;;;;;;;23.51;53.66;99839.09;2065385;28;20075;-66
2021/06/11 02:54:15;;;;;;;2.58;2.22;;;;;;;23.50;53.76;99842.88;2068977;28;20553;-67
2021/06/11 02:55:17;;;;;;;2.67;2.47;;;;;;;23.50;53.67;99854.75;2070453;28;20304;-67
2021/06/11 02:56:46;;;;;;;3.00;2.60;;;;;;;23.49;53.62;99847.53;2068860;28;20033;-67
2021/06/11 02:58:05;;;;;;;2.92;2.60;;;;;;;23.51;53.75;99850.09;2052577;28;20031;-66
2021/06/11 02:59:11;;;;;;;2.70;2.47;;;;;;;23.49;53.82;99853.03;2072538;28;20129;-67
2021/06/11 03:00:11;;;;;;;2.42;2.17;;;;;;;23.51;53.68;99850.09;2064409;28;20695;-66
2021/06/11 03:01:13;;;;;;;2.63;2.42;;;;;;;23.50;53.65;99843.75;2063216;28;20026;-66
2021/06/11 03:02:20;;;;;;;2.70;2.50;;;;;;;23.50;53.68;99843.75;2066517;28;20263;-67
2021/06/11 03:03:25;;;;;;;3.05;2.75;;;;;;;23.51;53.68;99844.59;2063011;28;20095;-66
2021/06/11 03:04:28;;;;;;;2.67;2.40;;;;;;;23.50;53.55;99849.25;2069313;28;20029;-67
2021/06/11 03:05:31;;;;;;;3.10;2.80;;;;;;;23.50;53.60;99849.25;2060728;28;20116;-67
2021/06/11 03:06:31;;;;;;;3.25;2.25;;;;;;;23.50;53.77;99838.22;2060879;28;20041;-67
2021/06/11 03:07:52;;;;;;;3.10;2.87;;;;;;;23.49;53.71;99846.66;2068515;28;20029;-67
2021/06/11 03:08:54;;;;;;;2.60;2.30;;;;;;;23.49;53.72;99842.03;2066959;28;20808;-67
2021/06/11 03:09:56;;;;;;;;;;;;;;;23.46;53.98;99845.13;2069841;28;20024;-66
2021/06/11 03:11:02;;;;;;;3.33;3.03;;;;;;;23.47;53.80;99849.63;2068553;28;19928;-67
2021/06/11 03:12:04;;;;;;;2.50;2.30;;;;;;;23.48;53.78;99848.56;2066802;28;20535;-67
2021/06/11 03:13:07;;;;;;;2.78;2.50;;;;;;;23.49;54.07;99838.41;2066311;28;20065;-67
2021/06/11 03:14:10;;;;;;;2.50;2.30;;;;;;;23.49;53.79;99847.53;2068046;28;20029;-67
2021/06/11 03:15:11;;;;;;;2.53;2.33;;;;;;;23.49;53.72;99846.66;2060668;28;20712;-66
2021/06/11 03:16:12;;;;;;;2.58;2.38;;;;;;;23.49;53.85;99853.03;2058142;28;20032;-67
2021/06/11 03:17:15;;;;;;;3.13;2.47;;;;;;;23.48;53.70;99840.31;2067448;28;20037;-67
2021/06/11 03:18:29;;;;;;;2.63;2.42;;;;;;;23.47;53.65;99838.63;2067596;28;20026;-66
2021/06/11 03:19:34;;;;;;;2.90;2.60;;;;;;;23.48;53.62;99840.31;2063985;28;20037;-67
2021/06/11 03:20:39;;;;;;;4.50;2.30;;;;;;;23.48;53.69;99843.06;2065566;28;20815;-67
2021/06/11 03:21:45;;;;;;;2.60;2.40;;;;;;;23.48;53.80;99839.47;2065959;28;20040;-66
2021/06/11 03:23:05;;;;;;;3.80;2.60;;;;;;;23.47;53.70;99844.13;2070064;28;20026;-67
2021/06/11 03:24:09;;;;;;;2.83;2.30;;;;;;;23.47;53.62;99838.63;2067751;28;20025;-66
2021/06/11 03:25:48;;;;;;;2.90;2.60;;;;;;;23.47;53.79;99843.22;2068351;28;20025;-67
2021/06/11 03:26:59;;;;;;;3.67;2.42;;;;;;;23.46;53.74;99836.88;2061567;28;20025;-67
2021/06/11 03:28:11;;;;;;;2.65;2.45;;;;;;;23.45;53.76;99843.44;2062782;28;20029;-67
2021/06/11 03:29:15;;;;;;;2.38;2.17;;;;;;;23.47;53.73;99840.47;2060847;28;20040;-66
2021/06/11 03:30:17;;;;;;;2.42;2.22;;;;;;;23.46;53.86;99836.03;2072593;28;20025;-67
2021/06/11 03:31:35;;;;;;;3.03;2.72;;;;;;;23.45;53.93;99835.19;2071128;28;20033;-66
2021/06/11 03:32:53;;;;;;;3.25;2.50;;;;;;;23.46;53.81;99836.88;2069224;28;20807;-66
2021/06/11 03:34:02;;;;;;;2.88;2.58;;;;;;;23.45;53.72;99840.69;2068523;28;20040;-66
2021/06/11 03:35:07;;;;;;;2.58;2.38;;;;;;;23.46;53.92;99842.38;2071897;28;20051;-66
2021/06/11 03:36:22;;;;;;;3.65;2.75;;;;;;;23.45;53.93;99837.94;2075061;28;20035;-67
2021/06/11 03:37:24;;;;;;;2.65;2.45;;;;;;;23.46;53.77;99842.38;2060954;28;20084;-66
2021/06/11 03:38:28;;;;;;;2.92;2.63;;;;;;;23.46;53.89;99842.38;2061912;28;20407;-66
2021/06/11 03:39:35;;;;;;;2.45;2.25;;;;;;;23.47;53.87;99843.22;2059729;28;20405;-67
2021/06/11 03:40:41;;;;;;;4.95;2.40;;;;;;;23.46;53.80;99842.38;2068299;28;20029;-67
2021/06/11 03:41:42;;;;;;;2.70;2.50;;;;;;;23.46;53.74;99841.53;2064313;28;20103;-67
2021/06/11 03:42:43;;;;;;;2.67;2.47;;;;;;;23.47;53.93;99845.97;2060522;28;20143;-67
2021/06/11 03:43:45;;;;;;;3.17;2.87;;;;;;;23.47;53.93;99844.13;2062924;28;20026;-67
2021/06/11 03:44:49;;;;;;;2.92;2.22;;;;;;;23.47;53.89;99844.13;2063759;28;20033;-66
2021/06/11 03:45:51;;;;;;;2.80;2.40;;;;;;;23.47;53.88;99838.63;2066284;28;20073;-66
2021/06/11 03:46:54;;;;;;;2.42;2.22;;;;;;;23.47;54.02;99838.63;2068583;28;20039;-67
2021/06/11 03:48:00;;;;;;;2.67;2.47;;;;;;;23.47;53.86;99833.09;2064590;28;20247;-67
2021/06/11 03:49:01;;;;;;;3.25;2.95;;;;;;;23.47;53.86;99835.88;2063453;28;20035;-67
2021/06/11 03:50:04;;;;;;;2.23;2.03;;;;;;;23.47;53.73;99833.09;2060979;28;20030;-67
2021/06/11 03:51:07;;;;;;;2.60;2.33;;;;;;;23.47;53.81;99838.63;2058881;28;20025;-67
2021/06/11 03:52:08;;;;;;;2.75;2.55;;;;;;;23.48;53.74;99834.81;2063634;28;20033;-67
2021/06/11 03:53:12;;;;;;;2.45;2.25;;;;;;;23.48;53.92;99834.81;2068825;28;20025;-67
2021/06/11 03:54:15;;;;;;;2.92;2.63;;;;;;;23.47;53.78;99844.13;2067181;28;20029;-67
2021/06/11 03:55:22;;;;;;;3.88;2.50;;;;;;;23.47;53.92;99844.13;2067165;28;20036;-66
2021/06/11 03:56:25;;;;;;;3.03;2.70;;;;;;;23.47;53.88;99837.72;2060835;28;20555;-67
2021/06/11 03:57:29;;;;;;;2.83;2.53;;;;;;;23.47;53.89;99843.22;2067767;28;20520;-67
2021/06/11 03:58:39;;;;;;;2.50;2.30;;;;;;;23.46;53.78;99838.78;2053835;28;20038;-67
2021/06/11 03:59:43;;;;;;;2.47;2.28;;;;;;;23.46;53.94;99842.38;2056844;28;20498;-66
2021/06/11 04:00:47;;;;;;;2.63;2.42;;;;;;;23.47;53.79;99838.63;2068357;28;20357;-66
2021/06/11 04:01:50;;;;;;;3.33;2.50;;;;;;;23.47;54.00;99835.88;2061407;28;20029;-66
2021/06/11 04:02:50;;;;;;;2.50;2.30;;;;;;;23.46;53.88;99834.13;2066844;28;20236;-66
2021/06/11 04:03:53;;;;;;;2.53;2.33;;;;;;;23.46;53.87;99834.13;2068544;28;20124;-66
2021/06/11 04:04:54;;;;;;;2.65;2.45;;;;;;;23.47;53.95;99837.72;2063247;28;20033;-66
2021/06/11 04:06:07;;;;;;;2.80;2.60;;;;;;;23.46;53.88;99836.03;2069192;28;20032;-66
2021/06/11 04:07:19;;;;;;;3.25;2.60;;;;;;;23.46;53.96;99836.03;2061179;28;20021;-67
2021/06/11 04:08:21;;;;;;;2.40;2.20;;;;;;;23.47;53.97;99840.47;2063339;28;20496;-66
2021/06/11 04:09:28;;;;;;;3.08;2.40;;;;;;;23.45;54.04;99835.19;2068878;28;20045;-66
2021/06/11 04:10:30;;;;;;;2.85;2.65;;;;;;;23.46;53.94;99834.13;2067448;28;20113;-67
2021/06/11 04:11:37;;;;;;;2.97;2.60;;;;;;;23.46;53.95;99836.03;2065570;28;20033;-66
2021/06/11 04:12:46;;;;;;;2.70;2.50;;;;;;;23.45;54.05;99835.19;2069712;28;20143;-66
2021/06/11 04:13:51;;;;;;;3.35;2.67;;;;;;;23.45;54.16;99828.84;2068696;28;20075;-67
2021/06/11 04:14:54;;;;;;;3.00;2.70;;;;;;;23.45;54.04;99837.94;2068469;28;20330;-67
2021/06/11 04:15:57;;;;;;;3.10;2.80;;;;;;;23.45;54.08;99832.44;2074793;28;20021;-67
2021/06/11 04:17:34;;;;;;;2.47;2.28;;;;;;;23.44;53.87;99841.72;2058310;28;20029;-66
2021/06/11 04:18:37;;;;;;;2.40;2.20;;;;;;;23.44;54.03;99838.97;2062393;28;20041;-67
2021/06/11 04:19:41;;;;;;;2.53;2.33;;;;;;;23.44;54.00;99838.09;2060751;28;20042;-66
2021/06/11 04:20:47;;;;;;;3.17;2.42;;;;;;;23.44;54.06;99841.72;2064237;28;20025;-67
2021/06/11 04:21:50;;;;;;;3.08;2.47;;;;;;;23.44;54.04;99849.97;2066265;28;20021;-66
2021/06/11 04:22:53;;;;;;;3.72;2.67;;;;;;;23.44;54.07;99841.72;2058256;28;20649;-67
2021/06/11 04:23:59;;;;;;;2.70;2.50;;;;;;;23.44;54.26;99841.72;2059551;28;20417;-67
2021/06/11 04:25:02;;;;;;;2.85;2.55;;;;;;;23.45;54.09;99848.94;2065616;28;20037;-66
2021/06/11 04:26:06;;;;;;;2.63;2.42;;;;;;;23.45;54.18;99842.59;2065865;28;20029;-67
2021/06/11 04:27:07;;;;;;;3.08;2.47;;;;;;;23.45;54.01;99835.19;2068155;28;20021;-66
2021/06/11 04:28:09;;;;;;;2.88;2.65;;;;;;;23.44;54.20;99844.47;2066066;28;20057;-67
2021/06/11 04:29:13;;;;;;;2.97;2.78;;;;;;;23.44;54.04;99838.97;2067280;28;20961;-67
2021/06/11 04:30:14;;;;;;;2.80;2.22;;;;;;;23.45;53.97;99846.19;2066891;28;20028;-67
2021/06/11 04:31:15;;;;;;;2.63;2.38;;;;;;;23.44;54.09;99838.97;2065830;28;20397;-66
2021/06/11 04:32:16;;;;;;;2.30;2.10;;;;;;;23.45;54.04;99851.69;2066855;28;20052;-66
2021/06/11 04:33:25;;;;;;;2.47;2.20;;;;;;;23.44;54.27;99844.47;2067661;28;20494;-66
2021/06/11 04:34:25;;;;;;;2.47;2.28;;;;;;;23.45;54.17;99846.19;2067835;28;20029;-66
2021/06/11 04:35:33;;;;;;;3.30;2.10;;;;;;;23.44;54.09;99849.09;2067275;28;20060;-67
2021/06/11 04:36:34;;;;;;;2.70;2.50;;;;;;;23.44;54.09;99854.63;2066333;28;20036;-66
2021/06/11 04:37:38;;;;;;;2.65;2.38;;;;;;;23.45;54.11;99848.94;2068758;28;20108;-67
2021/06/11 04:38:56;;;;;;;3.00;2.58;;;;;;;23.42;54.20;99852.06;2064461;28;20071;-67
2021/06/11 04:39:57;;;;;;;2.53;2.33;;;;;;;23.43;54.00;99862.00;2066451;28;20082;-66
2021/06/11 04:40:57;;;;;;;2.30;2.10;;;;;;;23.44;54.20;99860.97;2068577;28;20171;-66
2021/06/11 04:41:58;;;;;;;3.83;2.30;;;;;;;23.44;54.02;99860.97;2063928;28;20083;-66
2021/06/11 04:42:59;;;;;;;3.17;2.03;;;;;;;23.44;54.05;99860.97;2068417;28;20104;-67
2021/06/11 04:44:01;;;;;;;2.50;2.30;;;;;;;23.43;54.20;99862.00;2070163;28;20017;-66
2021/06/11 04:45:03;;;;;;;2.70;2.50;;;;;;;23.43;54.17;99859.25;2073631;28;20029;-66
2021/06/11 04:46:03;;;;;;;3.20;2.90;;;;;;;23.43;54.29;99859.25;2066776;28;20052;-67
2021/06/11 04:47:16;;;;;;;3.50;2.63;;;;;;;23.43;54.19;99866.66;2067784;28;20767;-66
2021/06/11 04:48:17;;;;;;;2.72;2.50;;;;;;;23.43;54.35;99861.16;2066644;28;20476;-67
2021/06/11 04:49:18;;;;;;;2.70;2.47;;;;;;;23.43;54.20;99864.78;2065293;28;20445;-66
2021/06/11 04:50:18;;;;;;;2.97;2.67;;;;;;;23.43;54.38;99863.91;2062828;28;20908;-66
2021/06/11 04:51:19;;;;;;;2.40;2.17;;;;;;;23.43;54.37;99872.16;2068136;28;20305;-67
2021/06/11 04:52:20;;;;;;;2.80;2.23;;;;;;;23.43;54.22;99866.66;2067026;28;20021;-67
2021/06/11 04:53:20;;;;;;;2.30;2.10;;;;;;;23.43;54.14;99867.53;2065490;28;20026;-66
2021/06/11 04:54:21;;;;;;;2.83;2.47;;;;;;;23.42;54.36;99868.56;2065909;28;20029;-66
2021/06/11 04:55:21;;;;;;;2.53;2.33;;;;;;;23.43;54.31;99881.28;2066371;28;20030;-66
2021/06/11 04:56:22;;;;;;;3.17;2.87;;;;;;;23.42;54.23;99882.31;2065940;28;20112;-66
2021/06/11 04:57:22;;;;;;;2.87;2.57;;;;;;;23.43;54.28;99886.78;2069048;28;20478;-66
2021/06/11 04:58:23;;;;;;;3.47;2.67;;;;;;;23.43;54.28;99886.78;2065166;28;20087;-67
2021/06/11 04:59:23;;;;;;;4.13;2.53;;;;;;;23.44;54.40;99890.38;2057432;28;20656;-67
2021/06/11 05:00:24;;;;;;;3.03;2.77;;;;;;;23.42;54.38;99878.69;2057435;28;20021;-67